SAS09W ENTC-EPKK
Flight info
| Callsign | SAS09W |
|---|---|
| Flight time | 3h 6m |
| Altitude | 37000 |
| Route | MOKAX DCT PENOR DCT UWLER |
| Aircraft | A320/M-SDE3FGHIRWY/LB1 |
Departure
| Time | 2026-05-07 15:09 |
|---|---|
| Airport | Tromsø Airport (ENTC) |
Arrival
| Time | 2026-05-07 18:16 |
|---|---|
| Airport | Kraków John Paul II International Airport (EPKK) |
| Time | Latitude | Longitude | Altitude | Speed | Heading |
|---|---|---|---|---|---|
| 2026-05-07 14:42 | 69.68050 | 18.90996 | 30 ft | 0 kts | 284° |
| 2026-05-07 14:43 | 69.68014 | 18.90970 | 30 ft | 0 kts | 284° |
| 2026-05-07 14:45 | 69.68014 | 18.90971 | 30 ft | 0 kts | 284° |
| 2026-05-07 14:56 | 69.68008 | 18.91034 | 30 ft | 4 kts | 282° |
| 2026-05-07 14:56 | 69.68003 | 18.91110 | 30 ft | 4 kts | 278° |
| 2026-05-07 14:57 | 69.68001 | 18.91187 | 30 ft | 4 kts | 269° |
| 2026-05-07 14:57 | 69.68004 | 18.91261 | 30 ft | 4 kts | 235° |
| 2026-05-07 14:57 | 69.68013 | 18.91287 | 30 ft | 0 kts | 193° |
| 2026-05-07 15:00 | 69.68010 | 18.91285 | 30 ft | 1 kts | 194° |
| 2026-05-07 15:01 | 69.68000 | 18.91278 | 30 ft | 2 kts | 194° |
| 2026-05-07 15:01 | 69.67970 | 18.91257 | 30 ft | 7 kts | 192° |
| 2026-05-07 15:01 | 69.67917 | 18.91224 | 31 ft | 8 kts | 193° |
| 2026-05-07 15:01 | 69.67856 | 18.91185 | 31 ft | 10 kts | 192° |
| 2026-05-07 15:02 | 69.67787 | 18.91141 | 32 ft | 11 kts | 193° |
| 2026-05-07 15:02 | 69.67710 | 18.91086 | 33 ft | 12 kts | 196° |
| 2026-05-07 15:02 | 69.67636 | 18.91123 | 33 ft | 8 kts | 115° |
| 2026-05-07 15:02 | 69.67635 | 18.91139 | 33 ft | 0 kts | 104° |
| 2026-05-07 15:04 | 69.67634 | 18.91150 | 33 ft | 1 kts | 104° |
| 2026-05-07 15:04 | 69.67629 | 18.91202 | 33 ft | 5 kts | 104° |
| 2026-05-07 15:04 | 69.67617 | 18.91323 | 34 ft | 8 kts | 111° |
| 2026-05-07 15:05 | 69.67568 | 18.91380 | 35 ft | 9 kts | 191° |
| 2026-05-07 15:05 | 69.67495 | 18.91329 | 35 ft | 14 kts | 193° |
| 2026-05-07 15:05 | 69.67384 | 18.91259 | 36 ft | 18 kts | 192° |
| 2026-05-07 15:05 | 69.67305 | 18.91184 | 33 ft | 9 kts | 217° |
| 2026-05-07 15:06 | 69.67253 | 18.91153 | 36 ft | 8 kts | 134° |
| 2026-05-07 15:06 | 69.67289 | 18.91226 | 34 ft | 10 kts | 348° |
| 2026-05-07 15:06 | 69.67322 | 18.91220 | 35 ft | 0 kts | 10° |
| 2026-05-07 15:08 | 69.67321 | 18.91220 | 35 ft | 0 kts | 10° |
| 2026-05-07 15:08 | 69.67441 | 18.91295 | 35 ft | 48 kts | 13° |
| 2026-05-07 15:09 | 69.68008 | 18.91674 | 30 ft | 119 kts | 13° |
| 2026-05-07 15:09 | 69.68995 | 18.92328 | 73 ft | 165 kts | 13° |
| 2026-05-07 15:09 | 69.70119 | 18.93162 | 599 ft | 173 kts | 15° |
| 2026-05-07 15:09 | 69.71283 | 18.94027 | 1372 ft | 171 kts | 13° |
| 2026-05-07 15:10 | 69.72463 | 18.94804 | 1838 ft | 181 kts | 12° |
| 2026-05-07 15:10 | 69.73762 | 18.95636 | 2049 ft | 199 kts | 12° |
| 2026-05-07 15:10 | 69.75153 | 18.96534 | 2350 ft | 213 kts | 13° |
| 2026-05-07 15:10 | 69.76575 | 18.97500 | 3105 ft | 205 kts | 18° |
| 2026-05-07 15:11 | 69.77744 | 18.99721 | 3666 ft | 208 kts | 53° |
| 2026-05-07 15:11 | 69.78290 | 19.03753 | 3794 ft | 228 kts | 89° |
| 2026-05-07 15:11 | 69.78057 | 19.08296 | 4049 ft | 238 kts | 107° |
| 2026-05-07 15:11 | 69.77535 | 19.12797 | 4352 ft | 236 kts | 108° |
| 2026-05-07 15:12 | 69.77073 | 19.17401 | 4992 ft | 240 kts | 105° |
| 2026-05-07 15:12 | 69.76649 | 19.22102 | 5690 ft | 243 kts | 107° |
| 2026-05-07 15:12 | 69.75837 | 19.26352 | 6354 ft | 245 kts | 135° |
| 2026-05-07 15:12 | 69.74396 | 19.29017 | 6865 ft | 254 kts | 163° |
| 2026-05-07 15:13 | 69.72602 | 19.29267 | 7236 ft | 266 kts | 193° |
| 2026-05-07 15:13 | 69.70779 | 19.28009 | 7836 ft | 272 kts | 195° |
| 2026-05-07 15:13 | 69.68925 | 19.26707 | 8342 ft | 275 kts | 195° |
| 2026-05-07 15:13 | 69.67060 | 19.25404 | 9098 ft | 276 kts | 195° |
| 2026-05-07 15:14 | 69.65180 | 19.24106 | 9819 ft | 279 kts | 195° |
| 2026-05-07 15:14 | 69.63243 | 19.23179 | 10288 ft | 290 kts | 188° |
| 2026-05-07 15:14 | 69.61162 | 19.22571 | 10419 ft | 311 kts | 186° |
| 2026-05-07 15:14 | 69.58939 | 19.22026 | 10549 ft | 330 kts | 186° |
| 2026-05-07 15:15 | 69.56583 | 19.21491 | 10703 ft | 348 kts | 186° |
| 2026-05-07 15:15 | 69.54142 | 19.20947 | 11160 ft | 355 kts | 186° |
| 2026-05-07 15:15 | 69.51666 | 19.20392 | 11707 ft | 359 kts | 186° |
| 2026-05-07 15:15 | 69.49202 | 19.19827 | 12279 ft | 361 kts | 186° |
| 2026-05-07 15:16 | 69.46682 | 19.19239 | 12813 ft | 364 kts | 186° |
| 2026-05-07 15:16 | 69.44148 | 19.18637 | 13382 ft | 367 kts | 186° |
| 2026-05-07 15:16 | 69.41594 | 19.18027 | 13923 ft | 370 kts | 186° |
| 2026-05-07 15:16 | 69.39019 | 19.17408 | 14424 ft | 372 kts | 186° |
| 2026-05-07 15:17 | 69.36429 | 19.16786 | 14925 ft | 375 kts | 186° |
| 2026-05-07 15:17 | 69.33817 | 19.16159 | 15438 ft | 378 kts | 186° |
| 2026-05-07 15:17 | 69.31189 | 19.15533 | 15967 ft | 380 kts | 186° |
| 2026-05-07 15:17 | 69.28541 | 19.14910 | 16477 ft | 383 kts | 186° |
| 2026-05-07 15:18 | 69.25866 | 19.14287 | 17006 ft | 386 kts | 186° |
| 2026-05-07 15:18 | 69.23177 | 19.13666 | 17544 ft | 388 kts | 186° |
| 2026-05-07 15:18 | 69.20474 | 19.13043 | 18079 ft | 391 kts | 186° |
| 2026-05-07 15:18 | 69.17749 | 19.12418 | 18577 ft | 394 kts | 186° |
| 2026-05-07 15:19 | 69.15039 | 19.11790 | 19039 ft | 397 kts | 186° |
| 2026-05-07 15:19 | 69.12274 | 19.11148 | 19495 ft | 400 kts | 186° |
| 2026-05-07 15:19 | 69.09489 | 19.10495 | 19945 ft | 402 kts | 186° |
| 2026-05-07 15:19 | 69.06685 | 19.09842 | 20384 ft | 404 kts | 186° |
| 2026-05-07 15:20 | 69.03867 | 19.09194 | 20803 ft | 407 kts | 186° |
| 2026-05-07 15:20 | 69.01037 | 19.08542 | 21204 ft | 409 kts | 185° |
| 2026-05-07 15:20 | 68.98193 | 19.07892 | 21605 ft | 411 kts | 185° |
| 2026-05-07 15:20 | 68.95370 | 19.07255 | 22000 ft | 413 kts | 185° |
| 2026-05-07 15:21 | 68.92489 | 19.06602 | 22368 ft | 415 kts | 185° |
| 2026-05-07 15:21 | 68.89603 | 19.05937 | 22740 ft | 417 kts | 185° |
| 2026-05-07 15:21 | 68.86704 | 19.05271 | 23100 ft | 419 kts | 185° |
| 2026-05-07 15:21 | 68.83789 | 19.04607 | 23443 ft | 421 kts | 185° |
| 2026-05-07 15:22 | 68.80852 | 19.03945 | 23758 ft | 422 kts | 185° |
| 2026-05-07 15:22 | 68.77914 | 19.03291 | 24028 ft | 424 kts | 185° |
| 2026-05-07 15:22 | 68.74965 | 19.02640 | 24290 ft | 426 kts | 185° |
| 2026-05-07 15:22 | 68.72003 | 19.01987 | 24551 ft | 428 kts | 185° |
| 2026-05-07 15:23 | 68.69023 | 19.01331 | 24816 ft | 430 kts | 185° |
| 2026-05-07 15:23 | 68.66033 | 19.00667 | 25150 ft | 431 kts | 185° |
| 2026-05-07 15:23 | 68.63078 | 19.00005 | 25538 ft | 430 kts | 185° |
| 2026-05-07 15:23 | 68.60097 | 18.99334 | 25937 ft | 429 kts | 185° |
| 2026-05-07 15:24 | 68.57124 | 18.98669 | 26329 ft | 429 kts | 185° |
| 2026-05-07 15:24 | 68.54144 | 18.98007 | 26710 ft | 429 kts | 185° |
| 2026-05-07 15:24 | 68.51168 | 18.97355 | 27089 ft | 429 kts | 185° |
| 2026-05-07 15:24 | 68.48190 | 18.96707 | 27470 ft | 429 kts | 185° |
| 2026-05-07 15:25 | 68.45216 | 18.96064 | 27858 ft | 428 kts | 185° |
| 2026-05-07 15:25 | 68.42234 | 18.95421 | 28251 ft | 428 kts | 185° |
| 2026-05-07 15:25 | 68.39266 | 18.94779 | 28639 ft | 428 kts | 185° |
| 2026-05-07 15:25 | 68.36300 | 18.94140 | 29031 ft | 428 kts | 185° |
| 2026-05-07 15:26 | 68.33371 | 18.93512 | 29414 ft | 428 kts | 185° |
| 2026-05-07 15:26 | 68.30402 | 18.92878 | 29810 ft | 427 kts | 185° |
| 2026-05-07 15:26 | 68.27435 | 18.92241 | 30171 ft | 427 kts | 186° |
| 2026-05-07 15:26 | 68.24465 | 18.91599 | 30489 ft | 427 kts | 186° |
| 2026-05-07 15:27 | 68.21498 | 18.90953 | 30795 ft | 427 kts | 186° |
| 2026-05-07 15:27 | 68.18531 | 18.90314 | 31083 ft | 428 kts | 186° |
| 2026-05-07 15:27 | 68.15557 | 18.89684 | 31372 ft | 428 kts | 186° |
| 2026-05-07 15:27 | 68.12583 | 18.89061 | 31670 ft | 429 kts | 186° |
| 2026-05-07 15:28 | 68.09609 | 18.88448 | 31963 ft | 429 kts | 186° |
| 2026-05-07 15:28 | 68.06671 | 18.87837 | 32258 ft | 429 kts | 186° |
| 2026-05-07 15:28 | 68.03689 | 18.87206 | 32555 ft | 430 kts | 186° |
| 2026-05-07 15:28 | 68.00708 | 18.86577 | 32847 ft | 430 kts | 186° |
| 2026-05-07 15:29 | 67.97723 | 18.85952 | 33146 ft | 430 kts | 186° |
| 2026-05-07 15:29 | 67.94730 | 18.85331 | 33437 ft | 430 kts | 186° |
| 2026-05-07 15:29 | 67.91746 | 18.84717 | 33705 ft | 430 kts | 186° |
| 2026-05-07 15:29 | 67.88761 | 18.84105 | 33984 ft | 430 kts | 186° |
| 2026-05-07 15:30 | 67.85768 | 18.83489 | 34211 ft | 430 kts | 186° |
| 2026-05-07 15:30 | 67.82785 | 18.82872 | 34418 ft | 430 kts | 186° |
| 2026-05-07 15:30 | 67.79831 | 18.82257 | 34615 ft | 430 kts | 186° |
| 2026-05-07 15:30 | 67.76845 | 18.81630 | 34799 ft | 431 kts | 186° |
| 2026-05-07 15:31 | 67.73860 | 18.81005 | 34993 ft | 431 kts | 186° |
| 2026-05-07 15:31 | 67.70865 | 18.80381 | 35174 ft | 431 kts | 186° |
| 2026-05-07 15:31 | 67.67873 | 18.79768 | 35346 ft | 431 kts | 186° |
| 2026-05-07 15:31 | 67.64881 | 18.79165 | 35519 ft | 431 kts | 186° |
| 2026-05-07 15:32 | 67.61889 | 18.78567 | 35688 ft | 431 kts | 186° |
| 2026-05-07 15:32 | 67.58899 | 18.77972 | 35850 ft | 431 kts | 186° |
| 2026-05-07 15:32 | 67.55902 | 18.77373 | 36015 ft | 431 kts | 186° |
| 2026-05-07 15:32 | 67.52914 | 18.76770 | 36173 ft | 431 kts | 186° |
| 2026-05-07 15:33 | 67.49922 | 18.76167 | 36334 ft | 431 kts | 187° |
| 2026-05-07 15:33 | 67.46928 | 18.75566 | 36484 ft | 431 kts | 187° |
| 2026-05-07 15:33 | 67.43932 | 18.74967 | 36620 ft | 431 kts | 187° |
| 2026-05-07 15:33 | 67.40940 | 18.74365 | 36752 ft | 431 kts | 187° |
| 2026-05-07 15:34 | 67.37952 | 18.73764 | 36874 ft | 431 kts | 187° |
| 2026-05-07 15:34 | 67.34958 | 18.73164 | 37000 ft | 431 kts | 187° |
| 2026-05-07 15:34 | 67.31965 | 18.72571 | 37118 ft | 431 kts | 187° |
| 2026-05-07 15:34 | 67.28972 | 18.71984 | 37245 ft | 431 kts | 187° |
| 2026-05-07 15:35 | 67.23035 | 18.70820 | 37494 ft | 429 kts | 187° |
| 2026-05-07 15:35 | 67.20061 | 18.70236 | 37618 ft | 428 kts | 187° |
| 2026-05-07 15:35 | 67.18091 | 18.69851 | 37709 ft | 427 kts | 187° |
| 2026-05-07 15:36 | 67.14128 | 18.69083 | 37873 ft | 425 kts | 187° |
| 2026-05-07 15:36 | 67.12173 | 18.68703 | 37959 ft | 424 kts | 187° |
| 2026-05-07 15:36 | 67.09232 | 18.68132 | 38090 ft | 423 kts | 187° |
| 2026-05-07 15:36 | 67.06304 | 18.67562 | 38215 ft | 421 kts | 187° |
| 2026-05-07 15:37 | 67.03394 | 18.66994 | 38346 ft | 418 kts | 187° |
| 2026-05-07 15:37 | 67.00495 | 18.66434 | 38476 ft | 416 kts | 187° |
| 2026-05-07 15:37 | 66.97617 | 18.65886 | 38611 ft | 413 kts | 187° |
| 2026-05-07 15:37 | 66.94760 | 18.65347 | 38731 ft | 410 kts | 187° |
| 2026-05-07 15:38 | 66.89133 | 18.64283 | 38961 ft | 401 kts | 187° |
| 2026-05-07 15:38 | 66.83598 | 18.63230 | 39041 ft | 396 kts | 187° |
| 2026-05-07 15:39 | 66.78156 | 18.62182 | 39039 ft | 393 kts | 187° |
| 2026-05-07 15:39 | 66.72718 | 18.61161 | 38968 ft | 392 kts | 187° |
| 2026-05-07 15:40 | 66.69981 | 18.60679 | 38801 ft | 398 kts | 187° |
| 2026-05-07 15:40 | 66.67168 | 18.60195 | 38165 ft | 415 kts | 187° |
| 2026-05-07 15:40 | 66.64223 | 18.59693 | 37303 ft | 428 kts | 187° |
| 2026-05-07 15:40 | 66.61260 | 18.59211 | 36992 ft | 425 kts | 186° |
| 2026-05-07 15:41 | 66.58342 | 18.58769 | 37362 ft | 412 kts | 186° |
| 2026-05-07 15:41 | 66.55492 | 18.58370 | 37588 ft | 411 kts | 186° |
| 2026-05-07 15:41 | 66.49781 | 18.57640 | 37976 ft | 402 kts | 186° |
| 2026-05-07 15:42 | 66.44144 | 18.56784 | 37850 ft | 407 kts | 189° |
| 2026-05-07 15:42 | 66.38538 | 18.55121 | 37843 ft | 409 kts | 190° |
| 2026-05-07 15:43 | 66.32849 | 18.53677 | 37839 ft | 412 kts | 188° |
| 2026-05-07 15:43 | 66.27105 | 18.52600 | 37842 ft | 415 kts | 187° |
| 2026-05-07 15:44 | 66.21323 | 18.51645 | 37840 ft | 418 kts | 187° |
| 2026-05-07 15:44 | 66.15488 | 18.50643 | 37842 ft | 421 kts | 187° |
| 2026-05-07 15:45 | 66.09622 | 18.49591 | 37845 ft | 424 kts | 187° |
| 2026-05-07 15:45 | 66.03743 | 18.48538 | 37842 ft | 428 kts | 187° |
| 2026-05-07 15:46 | 65.94757 | 18.46936 | 37843 ft | 434 kts | 187° |
| 2026-05-07 15:47 | 65.88707 | 18.45872 | 37845 ft | 438 kts | 187° |
| 2026-05-07 15:47 | 65.82601 | 18.44788 | 37841 ft | 440 kts | 187° |
| 2026-05-07 15:48 | 65.76493 | 18.43732 | 37843 ft | 440 kts | 187° |
| 2026-05-07 15:48 | 65.70380 | 18.42672 | 37838 ft | 440 kts | 187° |
| 2026-05-07 15:49 | 65.64314 | 18.41617 | 37846 ft | 440 kts | 187° |
| 2026-05-07 15:49 | 65.58214 | 18.40573 | 37847 ft | 440 kts | 187° |
| 2026-05-07 15:50 | 65.52107 | 18.39536 | 37837 ft | 440 kts | 187° |
| 2026-05-07 15:50 | 65.46009 | 18.38496 | 37834 ft | 439 kts | 188° |
| 2026-05-07 15:51 | 65.39908 | 18.37450 | 37844 ft | 439 kts | 187° |
| 2026-05-07 15:51 | 65.33804 | 18.36426 | 37848 ft | 439 kts | 188° |
| 2026-05-07 15:52 | 65.27708 | 18.35400 | 37840 ft | 439 kts | 188° |
| 2026-05-07 15:52 | 65.21653 | 18.34383 | 37843 ft | 438 kts | 188° |
| 2026-05-07 15:53 | 65.15563 | 18.33361 | 37843 ft | 438 kts | 188° |
| 2026-05-07 15:53 | 65.09473 | 18.32340 | 37846 ft | 438 kts | 188° |
| 2026-05-07 15:54 | 65.03379 | 18.31330 | 37847 ft | 438 kts | 188° |
| 2026-05-07 15:54 | 64.97335 | 18.30347 | 37845 ft | 438 kts | 188° |
| 2026-05-07 15:55 | 64.91253 | 18.29355 | 37848 ft | 438 kts | 188° |
| 2026-05-07 15:55 | 64.85166 | 18.28367 | 37848 ft | 438 kts | 188° |
| 2026-05-07 15:56 | 64.79074 | 18.27385 | 37845 ft | 438 kts | 188° |
| 2026-05-07 15:56 | 64.72993 | 18.26399 | 37852 ft | 438 kts | 188° |
| 2026-05-07 15:57 | 64.66910 | 18.25407 | 37853 ft | 438 kts | 188° |
| 2026-05-07 15:57 | 64.60861 | 18.24438 | 37852 ft | 438 kts | 188° |
| 2026-05-07 15:58 | 64.54773 | 18.23479 | 37856 ft | 438 kts | 188° |
| 2026-05-07 15:58 | 64.48690 | 18.22511 | 37856 ft | 438 kts | 188° |
| 2026-05-07 15:59 | 64.42605 | 18.21561 | 37859 ft | 438 kts | 188° |
| 2026-05-07 15:59 | 64.36545 | 18.20609 | 37857 ft | 438 kts | 188° |
| 2026-05-07 16:00 | 64.30442 | 18.19643 | 37861 ft | 438 kts | 188° |
| 2026-05-07 16:00 | 64.24353 | 18.18702 | 37866 ft | 439 kts | 188° |
| 2026-05-07 16:01 | 64.18257 | 18.17756 | 37864 ft | 439 kts | 188° |
| 2026-05-07 16:01 | 64.12198 | 18.16814 | 37861 ft | 438 kts | 188° |
| 2026-05-07 16:02 | 64.06104 | 18.15869 | 37855 ft | 439 kts | 188° |
| 2026-05-07 16:02 | 64.00016 | 18.14948 | 37868 ft | 439 kts | 188° |
| 2026-05-07 16:03 | 63.93946 | 18.14035 | 37871 ft | 439 kts | 188° |
| 2026-05-07 16:03 | 63.87839 | 18.13099 | 37865 ft | 439 kts | 188° |
| 2026-05-07 16:04 | 63.81735 | 18.12179 | 37869 ft | 439 kts | 188° |
| 2026-05-07 16:04 | 63.75632 | 18.11256 | 37867 ft | 439 kts | 188° |
| 2026-05-07 16:05 | 63.69565 | 18.10343 | 37876 ft | 439 kts | 188° |
| 2026-05-07 16:05 | 63.63461 | 18.09444 | 37873 ft | 439 kts | 188° |
| 2026-05-07 16:06 | 63.57365 | 18.08548 | 37877 ft | 439 kts | 188° |
| 2026-05-07 16:06 | 63.51267 | 18.07634 | 37877 ft | 439 kts | 189° |
| 2026-05-07 16:07 | 63.45219 | 18.06733 | 37880 ft | 438 kts | 189° |
| 2026-05-07 16:07 | 63.39127 | 18.05840 | 37883 ft | 438 kts | 188° |
| 2026-05-07 16:08 | 63.33036 | 18.04960 | 37888 ft | 438 kts | 189° |
| 2026-05-07 16:08 | 63.26953 | 18.04075 | 37891 ft | 438 kts | 189° |
| 2026-05-07 16:09 | 63.20871 | 18.03191 | 37899 ft | 438 kts | 189° |
| 2026-05-07 16:09 | 63.14786 | 18.02318 | 37905 ft | 438 kts | 189° |
| 2026-05-07 16:10 | 63.08709 | 18.01455 | 37904 ft | 438 kts | 189° |
| 2026-05-07 16:10 | 63.02635 | 18.00576 | 37902 ft | 437 kts | 189° |
| 2026-05-07 16:11 | 62.96550 | 17.99705 | 37902 ft | 437 kts | 189° |
| 2026-05-07 16:11 | 62.90525 | 17.98844 | 37900 ft | 436 kts | 189° |
| 2026-05-07 16:12 | 62.84464 | 17.97991 | 37904 ft | 436 kts | 189° |
| 2026-05-07 16:12 | 62.78402 | 17.97142 | 37910 ft | 436 kts | 189° |
| 2026-05-07 16:13 | 62.72347 | 17.96300 | 37914 ft | 436 kts | 189° |
| 2026-05-07 16:13 | 62.66288 | 17.95462 | 37917 ft | 435 kts | 189° |
| 2026-05-07 16:14 | 62.60236 | 17.94615 | 37924 ft | 435 kts | 189° |
| 2026-05-07 16:14 | 62.54181 | 17.93765 | 37917 ft | 435 kts | 189° |
| 2026-05-07 16:15 | 62.48181 | 17.92941 | 37930 ft | 435 kts | 189° |
| 2026-05-07 16:15 | 62.42146 | 17.92123 | 37929 ft | 434 kts | 189° |
| 2026-05-07 16:16 | 62.36107 | 17.91301 | 37927 ft | 434 kts | 189° |
| 2026-05-07 16:16 | 62.30078 | 17.90473 | 37922 ft | 434 kts | 189° |
| 2026-05-07 16:17 | 62.24052 | 17.89670 | 37924 ft | 434 kts | 189° |
| 2026-05-07 16:17 | 62.18029 | 17.88855 | 37922 ft | 433 kts | 189° |
| 2026-05-07 16:18 | 62.12011 | 17.88044 | 37923 ft | 433 kts | 189° |
| 2026-05-07 16:18 | 62.06036 | 17.87240 | 37923 ft | 433 kts | 189° |
| 2026-05-07 16:19 | 62.00023 | 17.86426 | 37925 ft | 433 kts | 189° |
| 2026-05-07 16:19 | 61.94004 | 17.85621 | 37924 ft | 433 kts | 189° |
| 2026-05-07 16:20 | 61.87988 | 17.84836 | 37929 ft | 433 kts | 189° |
| 2026-05-07 16:20 | 61.82988 | 17.84184 | 37924 ft | 433 kts | 189° |
| 2026-05-07 16:21 | 61.77449 | 17.83442 | 37925 ft | 433 kts | 190° |
| 2026-05-07 16:21 | 61.71422 | 17.82646 | 37924 ft | 433 kts | 189° |
| 2026-05-07 16:22 | 61.65392 | 17.81871 | 37931 ft | 433 kts | 189° |
| 2026-05-07 16:22 | 61.59382 | 17.81102 | 37930 ft | 433 kts | 189° |
| 2026-05-07 16:23 | 61.53367 | 17.80325 | 37932 ft | 433 kts | 190° |
| 2026-05-07 16:23 | 61.47355 | 17.79537 | 37931 ft | 432 kts | 190° |
| 2026-05-07 16:24 | 61.41385 | 17.78756 | 37933 ft | 432 kts | 189° |
| 2026-05-07 16:24 | 61.35368 | 17.78000 | 37932 ft | 432 kts | 189° |
| 2026-05-07 16:25 | 61.29398 | 17.77255 | 37935 ft | 432 kts | 189° |
| 2026-05-07 16:25 | 61.23392 | 17.76499 | 37875 ft | 433 kts | 189° |
| 2026-05-07 16:25 | 61.20392 | 17.76114 | 37678 ft | 432 kts | 190° |
| 2026-05-07 16:26 | 61.17394 | 17.75725 | 37492 ft | 431 kts | 190° |
| 2026-05-07 16:26 | 61.14396 | 17.75341 | 37306 ft | 431 kts | 190° |
| 2026-05-07 16:26 | 61.11402 | 17.74962 | 37110 ft | 430 kts | 190° |
| 2026-05-07 16:27 | 61.05426 | 17.74218 | 37135 ft | 430 kts | 190° |
| 2026-05-07 16:27 | 60.99451 | 17.73471 | 37135 ft | 430 kts | 190° |
| 2026-05-07 16:28 | 60.93501 | 17.72733 | 37134 ft | 430 kts | 190° |
| 2026-05-07 16:28 | 60.87533 | 17.71983 | 37132 ft | 430 kts | 190° |
| 2026-05-07 16:29 | 60.81549 | 17.71240 | 37130 ft | 430 kts | 190° |
| 2026-05-07 16:29 | 60.75563 | 17.70500 | 37131 ft | 431 kts | 190° |
| 2026-05-07 16:30 | 60.69571 | 17.69766 | 37133 ft | 431 kts | 189° |
| 2026-05-07 16:30 | 60.63623 | 17.69034 | 37126 ft | 431 kts | 189° |
| 2026-05-07 16:31 | 60.57638 | 17.68310 | 37132 ft | 431 kts | 189° |
| 2026-05-07 16:31 | 60.51644 | 17.67594 | 37127 ft | 430 kts | 189° |
| 2026-05-07 16:32 | 60.45658 | 17.66862 | 37124 ft | 430 kts | 189° |
| 2026-05-07 16:32 | 60.39674 | 17.66138 | 37122 ft | 430 kts | 189° |
| 2026-05-07 16:33 | 60.33700 | 17.65420 | 37121 ft | 430 kts | 189° |
| 2026-05-07 16:33 | 60.27770 | 17.64717 | 37116 ft | 429 kts | 189° |
| 2026-05-07 16:34 | 60.21811 | 17.64011 | 37114 ft | 428 kts | 189° |
| 2026-05-07 16:34 | 60.15852 | 17.63306 | 37122 ft | 428 kts | 189° |
| 2026-05-07 16:35 | 60.09918 | 17.62594 | 37110 ft | 427 kts | 189° |
| 2026-05-07 16:35 | 60.03992 | 17.61886 | 37101 ft | 426 kts | 189° |
| 2026-05-07 16:36 | 59.98078 | 17.61191 | 37105 ft | 425 kts | 189° |
| 2026-05-07 16:36 | 59.92197 | 17.60512 | 37102 ft | 425 kts | 189° |
| 2026-05-07 16:37 | 59.86294 | 17.59831 | 37108 ft | 424 kts | 189° |
| 2026-05-07 16:37 | 59.80408 | 17.59144 | 37110 ft | 423 kts | 189° |
| 2026-05-07 16:38 | 59.74524 | 17.58460 | 37116 ft | 423 kts | 189° |
| 2026-05-07 16:38 | 59.68653 | 17.57791 | 37114 ft | 422 kts | 189° |
| 2026-05-07 16:39 | 59.62777 | 17.57126 | 37114 ft | 422 kts | 189° |
| 2026-05-07 16:39 | 59.56944 | 17.56458 | 37109 ft | 422 kts | 189° |
| 2026-05-07 16:40 | 59.51084 | 17.55783 | 37107 ft | 422 kts | 189° |
| 2026-05-07 16:40 | 59.45227 | 17.55106 | 37110 ft | 421 kts | 189° |
| 2026-05-07 16:41 | 59.39362 | 17.54431 | 37114 ft | 421 kts | 189° |
| 2026-05-07 16:41 | 59.33511 | 17.53779 | 37116 ft | 420 kts | 189° |
| 2026-05-07 16:42 | 59.27670 | 17.53129 | 37114 ft | 419 kts | 189° |
| 2026-05-07 16:42 | 59.21879 | 17.52480 | 37112 ft | 419 kts | 189° |
| 2026-05-07 16:43 | 59.16044 | 17.51818 | 37117 ft | 419 kts | 189° |
| 2026-05-07 16:43 | 59.10215 | 17.51170 | 37119 ft | 419 kts | 189° |
| 2026-05-07 16:44 | 59.04393 | 17.50530 | 37123 ft | 419 kts | 189° |
| 2026-05-07 16:44 | 58.98579 | 17.49885 | 37126 ft | 418 kts | 189° |
| 2026-05-07 16:45 | 58.92769 | 17.49247 | 37131 ft | 418 kts | 188° |
| 2026-05-07 16:45 | 58.86972 | 17.48603 | 37125 ft | 417 kts | 188° |
| 2026-05-07 16:46 | 58.81216 | 17.47969 | 37137 ft | 416 kts | 188° |
| 2026-05-07 16:46 | 58.75433 | 17.47344 | 37135 ft | 415 kts | 188° |
| 2026-05-07 16:47 | 58.69659 | 17.46715 | 37132 ft | 415 kts | 188° |
| 2026-05-07 16:47 | 58.63891 | 17.46091 | 37143 ft | 414 kts | 188° |
| 2026-05-07 16:48 | 58.58168 | 17.45482 | 37137 ft | 414 kts | 188° |
| 2026-05-07 16:48 | 58.52425 | 17.44868 | 37143 ft | 413 kts | 188° |
| 2026-05-07 16:49 | 58.46690 | 17.44261 | 37142 ft | 412 kts | 188° |
| 2026-05-07 16:49 | 58.40951 | 17.43631 | 37141 ft | 411 kts | 188° |
| 2026-05-07 16:50 | 58.35236 | 17.43002 | 37144 ft | 411 kts | 188° |
| 2026-05-07 16:50 | 58.29529 | 17.42398 | 37143 ft | 411 kts | 188° |
| 2026-05-07 16:51 | 58.23816 | 17.41798 | 37147 ft | 410 kts | 188° |
| 2026-05-07 16:51 | 58.18117 | 17.41185 | 37146 ft | 410 kts | 188° |
| 2026-05-07 16:52 | 58.12456 | 17.40583 | 37146 ft | 410 kts | 187° |
| 2026-05-07 16:52 | 58.06758 | 17.39989 | 37142 ft | 409 kts | 187° |
| 2026-05-07 16:53 | 58.01076 | 17.39399 | 37142 ft | 409 kts | 187° |
| 2026-05-07 16:53 | 57.95387 | 17.38808 | 37139 ft | 408 kts | 187° |
| 2026-05-07 16:54 | 57.89743 | 17.38228 | 37140 ft | 408 kts | 187° |
| 2026-05-07 16:54 | 57.84065 | 17.37637 | 37139 ft | 408 kts | 187° |
| 2026-05-07 16:55 | 57.78399 | 17.37049 | 37138 ft | 408 kts | 187° |
| 2026-05-07 16:55 | 57.72732 | 17.36459 | 37136 ft | 407 kts | 187° |
| 2026-05-07 16:56 | 57.67070 | 17.35881 | 37134 ft | 407 kts | 187° |
| 2026-05-07 16:56 | 57.58609 | 17.35027 | 37140 ft | 407 kts | 187° |
| 2026-05-07 16:57 | 57.52948 | 17.34452 | 37128 ft | 407 kts | 187° |
| 2026-05-07 16:57 | 57.47294 | 17.33872 | 37136 ft | 406 kts | 187° |
| 2026-05-07 16:58 | 57.41647 | 17.33302 | 37141 ft | 406 kts | 187° |
| 2026-05-07 16:58 | 57.36037 | 17.32731 | 37138 ft | 406 kts | 187° |
| 2026-05-07 16:59 | 57.30393 | 17.32158 | 37136 ft | 406 kts | 187° |
| 2026-05-07 16:59 | 57.24738 | 17.31590 | 37140 ft | 406 kts | 187° |
| 2026-05-07 17:00 | 57.19094 | 17.31032 | 37143 ft | 406 kts | 187° |
| 2026-05-07 17:00 | 57.13447 | 17.30469 | 37138 ft | 406 kts | 187° |
| 2026-05-07 17:01 | 57.07796 | 17.29906 | 37140 ft | 406 kts | 187° |
| 2026-05-07 17:01 | 57.02147 | 17.29344 | 37135 ft | 406 kts | 187° |
| 2026-05-07 17:02 | 56.96497 | 17.28780 | 37127 ft | 406 kts | 187° |
| 2026-05-07 17:02 | 56.90877 | 17.28219 | 37127 ft | 406 kts | 186° |
| 2026-05-07 17:03 | 56.85222 | 17.27666 | 37124 ft | 407 kts | 186° |
| 2026-05-07 17:03 | 56.79563 | 17.27113 | 37126 ft | 407 kts | 186° |
| 2026-05-07 17:04 | 56.73927 | 17.26577 | 37123 ft | 408 kts | 186° |
| 2026-05-07 17:04 | 56.68249 | 17.26020 | 37119 ft | 408 kts | 186° |
| 2026-05-07 17:05 | 56.63523 | 17.25557 | 37119 ft | 409 kts | 186° |
| 2026-05-07 17:05 | 56.56906 | 17.24923 | 37124 ft | 410 kts | 186° |
| 2026-05-07 17:06 | 56.52129 | 17.24458 | 37119 ft | 410 kts | 186° |
| 2026-05-07 17:06 | 56.46427 | 17.23897 | 37120 ft | 410 kts | 186° |
| 2026-05-07 17:07 | 56.40753 | 17.23349 | 37121 ft | 411 kts | 186° |
| 2026-05-07 17:07 | 56.35038 | 17.22820 | 37122 ft | 411 kts | 186° |
| 2026-05-07 17:08 | 56.29282 | 17.22278 | 37123 ft | 412 kts | 186° |
| 2026-05-07 17:08 | 56.23588 | 17.21733 | 37127 ft | 412 kts | 186° |
| 2026-05-07 17:09 | 56.17849 | 17.21185 | 37119 ft | 413 kts | 186° |
| 2026-05-07 17:09 | 56.12112 | 17.20639 | 37125 ft | 413 kts | 186° |
| 2026-05-07 17:10 | 56.06361 | 17.20097 | 37123 ft | 413 kts | 186° |
| 2026-05-07 17:10 | 56.00608 | 17.19561 | 37125 ft | 413 kts | 186° |
| 2026-05-07 17:11 | 55.94860 | 17.19019 | 37124 ft | 414 kts | 186° |
| 2026-05-07 17:11 | 55.89146 | 17.18475 | 37128 ft | 414 kts | 186° |
| 2026-05-07 17:12 | 55.83391 | 17.17939 | 37131 ft | 414 kts | 186° |
| 2026-05-07 17:12 | 55.77635 | 17.17407 | 37131 ft | 414 kts | 186° |
| 2026-05-07 17:13 | 55.71879 | 17.16880 | 37128 ft | 414 kts | 186° |
| 2026-05-07 17:13 | 55.66119 | 17.16355 | 37130 ft | 414 kts | 186° |
| 2026-05-07 17:14 | 55.60344 | 17.17350 | 37128 ft | 420 kts | 173° |
| 2026-05-07 17:14 | 55.54602 | 17.19336 | 37125 ft | 421 kts | 173° |
| 2026-05-07 17:15 | 55.48847 | 17.21301 | 37122 ft | 421 kts | 173° |
| 2026-05-07 17:15 | 55.43129 | 17.23244 | 37120 ft | 421 kts | 173° |
| 2026-05-07 17:16 | 55.37373 | 17.25203 | 37122 ft | 421 kts | 173° |
| 2026-05-07 17:16 | 55.31616 | 17.27163 | 37117 ft | 421 kts | 173° |
| 2026-05-07 17:17 | 55.25851 | 17.29117 | 37119 ft | 421 kts | 173° |
| 2026-05-07 17:17 | 55.20129 | 17.31041 | 37118 ft | 421 kts | 173° |
| 2026-05-07 17:18 | 55.14363 | 17.32965 | 37119 ft | 421 kts | 173° |
| 2026-05-07 17:18 | 55.08594 | 17.34906 | 37121 ft | 421 kts | 173° |
| 2026-05-07 17:19 | 55.02836 | 17.36841 | 37091 ft | 421 kts | 172° |
| 2026-05-07 17:19 | 54.97076 | 17.38767 | 37109 ft | 421 kts | 172° |
| 2026-05-07 17:20 | 54.91319 | 17.40682 | 37112 ft | 421 kts | 172° |
| 2026-05-07 17:20 | 54.85598 | 17.42575 | 37119 ft | 421 kts | 172° |
| 2026-05-07 17:21 | 54.79852 | 17.44469 | 37124 ft | 420 kts | 172° |
| 2026-05-07 17:21 | 54.74101 | 17.46361 | 37122 ft | 420 kts | 172° |
| 2026-05-07 17:22 | 54.68362 | 17.48243 | 37122 ft | 420 kts | 172° |
| 2026-05-07 17:22 | 54.62628 | 17.50128 | 37122 ft | 419 kts | 172° |
| 2026-05-07 17:23 | 54.56893 | 17.52004 | 37124 ft | 419 kts | 172° |
| 2026-05-07 17:23 | 54.51197 | 17.53864 | 37120 ft | 418 kts | 172° |
| 2026-05-07 17:24 | 54.45471 | 17.55725 | 37117 ft | 418 kts | 172° |
| 2026-05-07 17:24 | 54.39751 | 17.57582 | 37113 ft | 417 kts | 172° |
| 2026-05-07 17:25 | 54.34042 | 17.59422 | 37109 ft | 417 kts | 172° |
| 2026-05-07 17:25 | 54.28377 | 17.61237 | 37106 ft | 417 kts | 172° |
| 2026-05-07 17:26 | 54.22656 | 17.63081 | 37101 ft | 417 kts | 172° |
| 2026-05-07 17:26 | 54.16945 | 17.64913 | 37093 ft | 417 kts | 172° |
| 2026-05-07 17:27 | 54.11238 | 17.66730 | 37090 ft | 417 kts | 172° |
| 2026-05-07 17:27 | 54.05567 | 17.68538 | 37093 ft | 417 kts | 172° |
| 2026-05-07 17:28 | 53.99857 | 17.70358 | 37090 ft | 417 kts | 172° |
| 2026-05-07 17:28 | 53.94149 | 17.72173 | 37087 ft | 417 kts | 172° |
| 2026-05-07 17:29 | 53.88435 | 17.73971 | 37086 ft | 417 kts | 172° |
| 2026-05-07 17:29 | 53.82726 | 17.75769 | 37083 ft | 417 kts | 172° |
| 2026-05-07 17:30 | 53.77019 | 17.77564 | 37083 ft | 417 kts | 172° |
| 2026-05-07 17:30 | 53.71311 | 17.79357 | 37077 ft | 417 kts | 172° |
| 2026-05-07 17:31 | 53.65606 | 17.81131 | 37073 ft | 417 kts | 172° |
| 2026-05-07 17:31 | 53.59940 | 17.82892 | 37072 ft | 417 kts | 172° |
| 2026-05-07 17:32 | 53.54243 | 17.84671 | 37072 ft | 417 kts | 172° |
| 2026-05-07 17:32 | 53.49495 | 17.86143 | 37070 ft | 417 kts | 172° |
| 2026-05-07 17:33 | 53.42823 | 17.88203 | 37071 ft | 417 kts | 172° |
| 2026-05-07 17:33 | 53.37112 | 17.89964 | 37068 ft | 417 kts | 172° |
| 2026-05-07 17:34 | 53.31405 | 17.91714 | 37065 ft | 417 kts | 172° |
| 2026-05-07 17:34 | 53.25690 | 17.93470 | 37063 ft | 417 kts | 172° |
| 2026-05-07 17:35 | 53.20019 | 17.95213 | 37072 ft | 417 kts | 173° |
| 2026-05-07 17:35 | 53.14312 | 17.96944 | 37072 ft | 417 kts | 173° |
| 2026-05-07 17:36 | 53.08602 | 17.98680 | 37071 ft | 416 kts | 172° |
| 2026-05-07 17:36 | 53.02898 | 18.00414 | 37073 ft | 416 kts | 173° |
| 2026-05-07 17:37 | 52.97200 | 18.02134 | 37072 ft | 416 kts | 172° |
| 2026-05-07 17:37 | 52.91540 | 18.03843 | 37071 ft | 415 kts | 173° |
| 2026-05-07 17:38 | 52.85847 | 18.05549 | 37069 ft | 415 kts | 173° |
| 2026-05-07 17:38 | 52.80163 | 18.07247 | 37063 ft | 415 kts | 173° |
| 2026-05-07 17:39 | 52.74485 | 18.08951 | 37061 ft | 414 kts | 172° |
| 2026-05-07 17:39 | 52.68838 | 18.10641 | 37060 ft | 414 kts | 173° |
| 2026-05-07 17:40 | 52.63167 | 18.12330 | 37055 ft | 414 kts | 173° |
| 2026-05-07 17:40 | 52.57494 | 18.14012 | 37054 ft | 414 kts | 173° |
| 2026-05-07 17:41 | 52.51856 | 18.15677 | 37052 ft | 413 kts | 173° |
| 2026-05-07 17:41 | 52.46186 | 18.17352 | 37048 ft | 413 kts | 173° |
| 2026-05-07 17:42 | 52.40521 | 18.19022 | 37050 ft | 413 kts | 173° |
| 2026-05-07 17:42 | 52.34853 | 18.20683 | 37047 ft | 413 kts | 173° |
| 2026-05-07 17:43 | 52.29196 | 18.22345 | 37048 ft | 413 kts | 173° |
| 2026-05-07 17:43 | 52.23572 | 18.23988 | 37045 ft | 413 kts | 173° |
| 2026-05-07 17:44 | 52.17931 | 18.25813 | 37043 ft | 415 kts | 164° |
| 2026-05-07 17:44 | 52.12784 | 18.30245 | 37034 ft | 420 kts | 154° |
| 2026-05-07 17:45 | 52.07747 | 18.35094 | 37029 ft | 421 kts | 153° |
| 2026-05-07 17:45 | 52.02709 | 18.39949 | 37025 ft | 421 kts | 154° |
| 2026-05-07 17:46 | 51.97652 | 18.44794 | 37027 ft | 421 kts | 154° |
| 2026-05-07 17:46 | 51.92622 | 18.49574 | 37023 ft | 422 kts | 154° |
| 2026-05-07 17:47 | 51.87565 | 18.54375 | 37017 ft | 422 kts | 154° |
| 2026-05-07 17:47 | 51.82488 | 18.59190 | 37017 ft | 422 kts | 154° |
| 2026-05-07 17:48 | 51.77415 | 18.63985 | 37019 ft | 422 kts | 154° |
| 2026-05-07 17:48 | 51.72375 | 18.68733 | 37019 ft | 422 kts | 154° |
| 2026-05-07 17:49 | 51.67296 | 18.73505 | 37018 ft | 422 kts | 154° |
| 2026-05-07 17:49 | 51.62225 | 18.78260 | 37013 ft | 422 kts | 154° |
| 2026-05-07 17:50 | 51.57146 | 18.83015 | 37009 ft | 422 kts | 154° |
| 2026-05-07 17:50 | 51.52058 | 18.87769 | 36819 ft | 422 kts | 154° |
| 2026-05-07 17:51 | 51.50381 | 18.89335 | 36651 ft | 421 kts | 155° |
| 2026-05-07 17:51 | 51.47033 | 18.92449 | 36303 ft | 418 kts | 155° |
| 2026-05-07 17:51 | 51.44514 | 18.94786 | 36039 ft | 417 kts | 155° |
| 2026-05-07 17:51 | 51.42009 | 18.97109 | 35797 ft | 415 kts | 155° |
| 2026-05-07 17:52 | 51.39513 | 18.99423 | 35544 ft | 413 kts | 155° |
| 2026-05-07 17:52 | 51.37863 | 19.00949 | 35381 ft | 412 kts | 155° |
| 2026-05-07 17:52 | 51.35385 | 19.03240 | 35130 ft | 411 kts | 156° |
| 2026-05-07 17:52 | 51.32904 | 19.05531 | 34886 ft | 410 kts | 156° |
| 2026-05-07 17:53 | 51.30441 | 19.07805 | 34646 ft | 408 kts | 156° |
| 2026-05-07 17:53 | 51.27981 | 19.10068 | 34409 ft | 407 kts | 156° |
| 2026-05-07 17:53 | 51.25570 | 19.12280 | 34168 ft | 406 kts | 156° |
| 2026-05-07 17:53 | 51.23129 | 19.14517 | 33922 ft | 404 kts | 156° |
| 2026-05-07 17:54 | 51.20686 | 19.16755 | 33637 ft | 403 kts | 156° |
| 2026-05-07 17:54 | 51.18269 | 19.18975 | 33204 ft | 398 kts | 156° |
| 2026-05-07 17:54 | 51.15881 | 19.21169 | 32740 ft | 394 kts | 156° |
| 2026-05-07 17:54 | 51.13514 | 19.23340 | 32233 ft | 390 kts | 156° |
| 2026-05-07 17:55 | 51.11170 | 19.25486 | 31775 ft | 387 kts | 156° |
| 2026-05-07 17:55 | 51.08876 | 19.27578 | 31286 ft | 384 kts | 156° |
| 2026-05-07 17:55 | 51.06566 | 19.29677 | 30804 ft | 381 kts | 156° |
| 2026-05-07 17:55 | 51.04262 | 19.31763 | 30301 ft | 381 kts | 156° |
| 2026-05-07 17:56 | 51.01953 | 19.33851 | 29770 ft | 382 kts | 156° |
| 2026-05-07 17:56 | 50.99829 | 19.35775 | 29261 ft | 384 kts | 156° |
| 2026-05-07 17:56 | 50.97459 | 19.37922 | 28733 ft | 386 kts | 155° |
| 2026-05-07 17:56 | 50.95117 | 19.40044 | 28173 ft | 388 kts | 155° |
| 2026-05-07 17:57 | 50.92765 | 19.42177 | 27611 ft | 390 kts | 155° |
| 2026-05-07 17:57 | 50.91202 | 19.43594 | 27223 ft | 392 kts | 155° |
| 2026-05-07 17:57 | 50.88019 | 19.46471 | 26420 ft | 395 kts | 155° |
| 2026-05-07 17:57 | 50.85628 | 19.48628 | 25808 ft | 396 kts | 155° |
| 2026-05-07 17:58 | 50.83238 | 19.50783 | 25193 ft | 394 kts | 154° |
| 2026-05-07 17:58 | 50.80860 | 19.52927 | 24584 ft | 392 kts | 154° |
| 2026-05-07 17:58 | 50.78520 | 19.55031 | 23982 ft | 390 kts | 154° |
| 2026-05-07 17:58 | 50.76162 | 19.57142 | 23353 ft | 389 kts | 154° |
| 2026-05-07 17:59 | 50.73803 | 19.59255 | 22712 ft | 386 kts | 154° |
| 2026-05-07 17:59 | 50.71474 | 19.61344 | 22128 ft | 384 kts | 154° |
| 2026-05-07 17:59 | 50.69155 | 19.63419 | 21532 ft | 382 kts | 154° |
| 2026-05-07 17:59 | 50.66845 | 19.65478 | 20940 ft | 381 kts | 154° |
| 2026-05-07 18:00 | 50.64531 | 19.67540 | 20363 ft | 381 kts | 154° |
| 2026-05-07 18:00 | 50.62220 | 19.69600 | 19778 ft | 382 kts | 154° |
| 2026-05-07 18:00 | 50.59909 | 19.71655 | 19216 ft | 382 kts | 154° |
| 2026-05-07 18:00 | 50.57597 | 19.73709 | 18668 ft | 382 kts | 154° |
| 2026-05-07 18:01 | 50.55280 | 19.75768 | 18096 ft | 381 kts | 153° |
| 2026-05-07 18:01 | 50.53006 | 19.77791 | 17547 ft | 379 kts | 153° |
| 2026-05-07 18:01 | 50.50717 | 19.79827 | 17035 ft | 375 kts | 153° |
| 2026-05-07 18:01 | 50.48455 | 19.81835 | 16528 ft | 372 kts | 153° |
| 2026-05-07 18:02 | 50.44021 | 19.85751 | 15892 ft | 354 kts | 153° |
| 2026-05-07 18:02 | 50.41911 | 19.87614 | 15761 ft | 341 kts | 153° |
| 2026-05-07 18:02 | 50.39888 | 19.89399 | 15626 ft | 323 kts | 153° |
| 2026-05-07 18:03 | 50.37995 | 19.91068 | 15494 ft | 301 kts | 154° |
| 2026-05-07 18:03 | 50.36225 | 19.92627 | 15372 ft | 282 kts | 154° |
| 2026-05-07 18:03 | 50.34721 | 19.93953 | 15167 ft | 270 kts | 154° |
| 2026-05-07 18:03 | 50.33120 | 19.95359 | 14743 ft | 265 kts | 154° |
| 2026-05-07 18:04 | 50.31516 | 19.96762 | 14247 ft | 263 kts | 154° |
| 2026-05-07 18:04 | 50.29923 | 19.98154 | 13756 ft | 262 kts | 154° |
| 2026-05-07 18:04 | 50.28329 | 19.99543 | 13315 ft | 260 kts | 154° |
| 2026-05-07 18:04 | 50.26756 | 20.00914 | 13185 ft | 260 kts | 154° |
| 2026-05-07 18:05 | 50.25171 | 20.02296 | 12792 ft | 261 kts | 154° |
| 2026-05-07 18:05 | 50.23593 | 20.03677 | 12395 ft | 260 kts | 152° |
| 2026-05-07 18:05 | 50.22203 | 20.05477 | 12009 ft | 263 kts | 130° |
| 2026-05-07 18:05 | 50.21370 | 20.08021 | 11616 ft | 267 kts | 106° |
| 2026-05-07 18:06 | 50.21256 | 20.10894 | 11129 ft | 274 kts | 82° |
| 2026-05-07 18:06 | 50.21645 | 20.13841 | 10620 ft | 282 kts | 79° |
| 2026-05-07 18:06 | 50.22060 | 20.16868 | 9996 ft | 286 kts | 79° |
| 2026-05-07 18:06 | 50.22475 | 20.19907 | 9339 ft | 287 kts | 78° |
| 2026-05-07 18:07 | 50.22879 | 20.22972 | 8700 ft | 288 kts | 83° |
| 2026-05-07 18:07 | 50.22813 | 20.26071 | 8057 ft | 286 kts | 106° |
| 2026-05-07 18:07 | 50.21994 | 20.28856 | 7427 ft | 282 kts | 129° |
| 2026-05-07 18:07 | 50.20572 | 20.30899 | 6806 ft | 277 kts | 152° |
| 2026-05-07 18:08 | 50.18783 | 20.31923 | 6184 ft | 272 kts | 175° |
| 2026-05-07 18:08 | 50.16927 | 20.31815 | 5652 ft | 264 kts | 196° |
| 2026-05-07 18:08 | 50.15295 | 20.30735 | 5199 ft | 255 kts | 216° |
| 2026-05-07 18:08 | 50.14034 | 20.28877 | 4757 ft | 246 kts | 236° |
| 2026-05-07 18:09 | 50.13277 | 20.26534 | 4293 ft | 240 kts | 255° |
| 2026-05-07 18:09 | 50.13028 | 20.24021 | 4022 ft | 227 kts | 265° |
| 2026-05-07 18:09 | 50.12871 | 20.21627 | 4002 ft | 213 kts | 264° |
| 2026-05-07 18:09 | 50.12716 | 20.19408 | 4022 ft | 202 kts | 264° |
| 2026-05-07 18:10 | 50.12570 | 20.17367 | 4002 ft | 178 kts | 264° |
| 2026-05-07 18:10 | 50.12438 | 20.15524 | 4002 ft | 165 kts | 264° |
| 2026-05-07 18:10 | 50.12317 | 20.13795 | 4001 ft | 157 kts | 264° |
| 2026-05-07 18:10 | 50.12201 | 20.12145 | 4019 ft | 151 kts | 264° |
| 2026-05-07 18:11 | 50.12089 | 20.10546 | 4019 ft | 146 kts | 264° |
| 2026-05-07 18:11 | 50.12015 | 20.09489 | 4015 ft | 144 kts | 264° |
| 2026-05-07 18:11 | 50.11761 | 20.07466 | 3996 ft | 144 kts | 259° |
| 2026-05-07 18:11 | 50.11551 | 20.05949 | 3862 ft | 143 kts | 259° |
| 2026-05-07 18:12 | 50.11344 | 20.04440 | 3737 ft | 142 kts | 259° |
| 2026-05-07 18:12 | 50.11138 | 20.02934 | 3605 ft | 142 kts | 259° |
| 2026-05-07 18:12 | 50.10933 | 20.01429 | 3488 ft | 142 kts | 259° |
| 2026-05-07 18:12 | 50.10726 | 19.99922 | 3361 ft | 142 kts | 259° |
| 2026-05-07 18:13 | 50.10521 | 19.98420 | 3234 ft | 142 kts | 259° |
| 2026-05-07 18:13 | 50.10316 | 19.96918 | 3120 ft | 142 kts | 258° |
| 2026-05-07 18:13 | 50.10109 | 19.95413 | 2980 ft | 142 kts | 259° |
| 2026-05-07 18:13 | 50.09905 | 19.93906 | 2801 ft | 142 kts | 259° |
| 2026-05-07 18:14 | 50.09708 | 19.92398 | 2559 ft | 143 kts | 259° |
| 2026-05-07 18:14 | 50.09522 | 19.90881 | 2309 ft | 142 kts | 261° |
| 2026-05-07 18:14 | 50.09309 | 19.89378 | 2059 ft | 142 kts | 255° |
| 2026-05-07 18:14 | 50.09049 | 19.87906 | 1900 ft | 143 kts | 258° |
| 2026-05-07 18:15 | 50.08835 | 19.86379 | 1741 ft | 145 kts | 259° |
| 2026-05-07 18:15 | 50.08642 | 19.84824 | 1464 ft | 147 kts | 257° |
| 2026-05-07 18:15 | 50.08432 | 19.83257 | 1256 ft | 147 kts | 256° |
| 2026-05-07 18:15 | 50.08214 | 19.81698 | 1044 ft | 146 kts | 255° |
| 2026-05-07 18:16 | 50.08002 | 19.80155 | 849 ft | 146 kts | 256° |
| 2026-05-07 18:16 | 50.07806 | 19.78754 | 792 ft | 102 kts | 259° |
| 2026-05-07 18:16 | 50.07718 | 19.78115 | 789 ft | 11 kts | 241° |
| 2026-05-07 18:16 | 50.07650 | 19.78109 | 790 ft | 9 kts | 179° |
| 2026-05-07 18:17 | 50.07597 | 19.78107 | 790 ft | 0 kts | 181° |
| 2026-05-07 18:17 | 50.07589 | 19.78107 | 790 ft | 2 kts | 181° |
| 2026-05-07 18:17 | 50.07568 | 19.78106 | 790 ft | 4 kts | 181° |
| 2026-05-07 18:17 | 50.07566 | 19.78106 | 790 ft | 0 kts | 180° |
| 2026-05-07 18:19 | 50.07561 | 19.78106 | 790 ft | 2 kts | 180° |
| 2026-05-07 18:19 | 50.07552 | 19.78106 | 790 ft | 0 kts | 181° |
| 2026-05-07 18:20 | 50.07549 | 19.78106 | 789 ft | 2 kts | 181° |
| 2026-05-07 18:20 | 50.07519 | 19.78104 | 790 ft | 7 kts | 182° |
| 2026-05-07 18:21 | 50.07475 | 19.78149 | 790 ft | 10 kts | 100° |
| 2026-05-07 18:21 | 50.07492 | 19.78283 | 790 ft | 15 kts | 77° |
| 2026-05-07 18:21 | 50.07516 | 19.78460 | 790 ft | 18 kts | 77° |
| 2026-05-07 18:21 | 50.07544 | 19.78664 | 790 ft | 20 kts | 77° |
| 2026-05-07 18:22 | 50.07570 | 19.78846 | 790 ft | 18 kts | 78° |
| 2026-05-07 18:22 | 50.07588 | 19.78975 | 790 ft | 19 kts | 78° |
| 2026-05-07 18:22 | 50.07623 | 19.79232 | 790 ft | 19 kts | 77° |
| 2026-05-07 18:22 | 50.07645 | 19.79387 | 790 ft | 14 kts | 78° |
| 2026-05-07 18:23 | 50.07667 | 19.79542 | 790 ft | 8 kts | 77° |
| 2026-05-07 18:23 | 50.07672 | 19.79575 | 790 ft | 0 kts | 78° |
| 2026-05-07 18:27 | 50.07672 | 19.79576 | 790 ft | 1 kts | 78° |
| 2026-05-07 18:27 | 50.07676 | 19.79610 | 790 ft | 6 kts | 78° |
| 2026-05-07 18:27 | 50.07677 | 19.79666 | 790 ft | 10 kts | 109° |
| 2026-05-07 18:28 | 50.07627 | 19.79715 | 790 ft | 6 kts | 169° |
| 2026-05-07 18:28 | 50.07565 | 19.79727 | 790 ft | 12 kts | 168° |
| 2026-05-07 18:28 | 50.07473 | 19.79758 | 790 ft | 12 kts | 167° |
| 2026-05-07 18:28 | 50.07391 | 19.79790 | 790 ft | 8 kts | 148° |
| 2026-05-07 18:29 | 50.07357 | 19.79841 | 790 ft | 7 kts | 154° |
| 2026-05-07 18:29 | 50.07325 | 19.79852 | 790 ft | 5 kts | 167° |
| 2026-05-07 18:29 | 50.07293 | 19.79864 | 790 ft | 2 kts | 167° |
| 2026-05-07 18:29 | 50.07287 | 19.79866 | 790 ft | 0 kts | 167° |
| 2026-05-07 18:30 | 50.07286 | 19.79866 | 790 ft | 0 kts | 167° |